Tiempo atmosférico en la estación meteorológica de San José del Valle, Cádiz (105 m.)



Fecha
DESCASC
Temp. máxima en grados centígrados (hora)
DESCASC
Temp. mínima en grados centígrados (hora)
DESCASC
Temp. media en grados centígrados
DESCASC
Racha de viento máxima en m/sg (hora)
DESCASC
Velocidad máxima media en intervalos de 10 minutos(hora)
DESCASC
Precipitaciones diarias en mm
DESCASC
Precipitaciones de 00:00 a 06:00 en mm
DESCASC
Precipitaciones de 06:00 a 12:00 en mm
DESCASC
Precipitaciones de 12:00 a 18:00 en mm
DESCASC
Precipitaciones de 18:00 a 24:00 en mm
DESCASC
31-03-2020 19.5 (16:00) 11.5 (07:10) 15.5 12.5 (02:20) 6.94 (04:20) 19.6 5.6 12.2 0.4 1.4
30-03-2020 19.4 (15:00) 9.8 (06:40) 14.6 7.78 (17:10) 4.17 (15:00) 3.4 0 0 0 3.4
29-03-2020 20.3 (14:40) 9.8 (00:00) 15 5 (17:50) 1.94 (03:00) 3.4 0 0 0.2 3.2
28-03-2020 21.4 (14:50) 7.7 (00:00) 14.5 7.78 (14:20) 4.72 (14:20) 0 0 0 0 0
27-03-2020 18.7 (16:20) 8.9 (00:00) 13.8 7.22 (15:40) 3.61 (14:20) 0 0 0 0 0
26-03-2020 20.1 (14:30) 9.9 (00:00) 15 8.89 (15:20) 4.17 (15:00) 0 0 0 0 0
25-03-2020 18.7 (15:50) 11 (00:00) 14.9 6.11 (09:30) 3.33 (09:30) 2 0.2 1.8 0 0
24-03-2020 16.9 (16:00) 10.7 (00:00) 13.8 4.44 (14:30) 2.5 (14:30) 12 0 7 1.8 3.2
23-03-2020 19.8 (14:20) 7.4 (00:00) 13.6 6.39 (15:00) 3.61 (15:10) 0.4 0 0 0 0.4
22-03-2020 17.2 (15:00) 8.4 (07:10) 12.8 5 (15:20) 2.22 (00:40) 2.6 2.6 0 0 0
21-03-2020 16.6 (11:00) 9.3 (00:00) 13 13.89 (15:40) 7.78 (15:40) 20.8 2.8 1.2 15.2 1.6
20-03-2020 18.4 (17:20) 12.6 (00:00) 15.5 13.61 (00:10) 7.78 (00:30) 2.6 0 0.4 0.2 2
19-03-2020 18.9 (11:40) 15.7 (00:00) 17.3 16.67 (01:20) 10.28 (12:20) 0 0 0 0 0
18-03-2020 20 (14:10) 15.1 (00:00) 17.6 19.72 (11:40) 10.83 (11:40) 0.8 0.8 0 0 0
17-03-2020 18.2 (14:30) 7.7 (00:00) 13 14.72 (14:00) 9.17 (13:10) 3 2.2 0.8 0 0
16-03-2020 17 (15:30) 9 (00:00) 13 10.83 (14:00) 4.17 (14:00) 0.4 0.4 0 0 0
15-03-2020 23.4 (15:30) 11.9 (00:00) 17.6 5.56 (20:40) 3.33 (20:40) 0 0 0 0 0
14-03-2020 24.1 (17:40) 9.9 (00:00) 17 5.28 (20:20) 3.06 (20:50) 0 0 0 0 0
13-03-2020 23 (16:10) 12.3 (02:20) 17.7 5.83 (13:50) 2.78 (13:00) 0 0 0 0 0
12-03-2020 27.8 (14:40) 13.1 (00:00) 20.4 7.5 (15:50) 3.61 (07:20) 0 0 0 0 0
11-03-2020 27.1 (13:40) 10.5 (00:00) 18.8 8.33 (16:00) 5.56 (15:20) 0 0 0 0 0
10-03-2020 27.2 (15:10) 10.4 (00:00) 18.8 8.06 (02:20) 3.06 (02:20) 0 0 0 0 0
09-03-2020 24.2 (16:00) 8.2 (00:00) 16.2 7.5 (14:00) 3.61 (14:20) 0 0 0 0 0
08-03-2020 24.8 (16:50) 6.4 (00:00) 15.6 5.28 (19:00) 2.78 (22:00) 0 0 0 0 0
07-03-2020 23.2 (16:10) 8 (00:00) 15.6 9.44 (18:40) 5 (02:50) 0 0 0 0 0
06-03-2020 19 (17:20) 6.5 (00:00) 12.8 8.89 (12:10) 3.61 (14:10) 0 0 0 0 0
05-03-2020 17.7 (17:50) 9.3 (00:00) 13.5 7.5 (16:00) 3.33 (15:40) 0 0 0 0 0
04-03-2020 21.7 (16:30) 11.8 (00:00) 16.8 7.22 (15:00) 3.61 (15:00) 0 0 0 0 0
03-03-2020 18.2 (13:40) 7.8 (00:00) 13 7.5 (17:10) 3.61 (17:10) 0 0 0 0 0
02-03-2020 19.1 (14:30) 11.1 (00:00) 15.1 9.72 (14:20) 5 (12:50) 1.4 0 1.4 0 0

Gráficas

Temp. máximas Temp. mínimas Temp. medias Precipitaciones Rachas de viento máximas Velocidades máximas media en intervalos de 10 minutos

Datos horarios

Fecha y hora oficial Temperatura (ºC) Velocidad del viento (km/h) Dirección del viento Racha (km/h) Dirección de racha Precipitación (mm) Presión (hPa) Tendencia (hPa) Humedad (%)
2020-03-31 23:00:00 13.4 5 Sudoeste 11 Sur 0.4 -- -- 95
2020-03-31 22:00:00 13.6 4 Sudoeste 9 Sudoeste 0 -- -- 93
2020-03-31 21:00:00 14.1 2 Sudoeste 12 Sur 0 -- -- 92
2020-03-31 20:00:00 14.3 4 Sur 16 Sur 0 -- -- 91
2020-03-31 19:00:00 14.3 11 Sur 26 Sudoeste 1 -- -- 86
2020-03-31 18:00:00 16.3 13 Sudoeste 28 Sur 0.4 -- -- 82
2020-03-31 17:00:00 18.7 15 Sudoeste 39 Sudoeste 0 -- -- 69
2020-03-31 16:00:00 19.5 17 Sudoeste 37 Sudoeste 0 -- -- 65
2020-03-31 15:00:00 18.8 15 Sudoeste 39 Sudoeste 0 -- -- 70
2020-03-31 14:00:00 18.8 16 Sudoeste 40 Sur 0 -- -- 74
2020-03-31 13:00:00 16.7 15 Sur 28 Sur 0 -- -- 81
2020-03-31 12:00:00 17 16 Sur 36 Sur 0 -- -- 79
2020-03-31 11:00:00 16.8 14 Sur 26 Sur 0 -- -- 84
2020-03-31 10:00:00 13.4 4 Sudeste 8 Sudeste 0.2 -- -- 98
2020-03-31 09:00:00 11.5 0 Calma 5 Sudeste 0.2 -- -- 97
2020-03-31 08:00:00 11.5 0 Calma 9 Sur 5.6 -- -- 95
2020-03-31 07:00:00 11.7 8 Norte 29 Oeste 6.2 -- -- 92
2020-03-31 06:00:00 13.1 17 Sur 33 Sur 0 -- -- 90
2020-03-31 05:00:00 13.2 23 Sur 45 Sur 0 -- -- 88
2020-03-31 04:00:00 12.8 22 Sur 43 Sur 0 -- -- 89
2020-03-31 03:00:00 12.5 16 Sur 45 Sur 3.8 -- -- 94
2020-03-31 02:00:00 13.3 23 Sur 41 Sudeste 0.8 -- -- 90
2020-03-31 01:00:00 12.2 3 Nordeste 14 Este 1 -- -- 93
2020-03-31 00:00:00 12.5 0 Calma 14 Este 2.4 -- -- 93
2020-03-30 23:00:00 12.9 0 Calma 5 Este 0.6 -- -- 93
2020-03-30 22:00:00 13.5 0 Calma 12 Noroeste 0.4 -- -- 88
2020-03-30 21:00:00 14.3 2 Noroeste 9 Oeste 0 -- -- 82
2020-03-30 20:00:00 15.8 0 Calma 11 Sur 0 -- -- 79
2020-03-30 19:00:00 16.7 6 Sur 18 Sudoeste 0 -- -- 70
2020-03-30 18:00:00 16.4 10 Sudoeste 28 Sudoeste 0 -- -- 72
2020-03-30 17:00:00 17.3 12 Sudoeste 27 Sudoeste 0 -- -- 69
2020-03-30 16:00:00 18.1 9 Sudoeste 24 Sur 0 -- -- 66
2020-03-30 15:00:00 19.4 15 Sur 26 Sur 0 -- -- 62
2020-03-30 14:00:00 18.6 11 Sur 22 Sur 0 -- -- 64
2020-03-30 13:00:00 17.5 11 Sur 21 Sur 0 -- -- 71
2020-03-30 12:00:00 15.7 4 Sudeste 10 Sudeste 0 -- -- 80
2020-03-30 11:00:00 13.3 0 Calma 5 Sudeste 0 -- -- 91
2020-03-30 10:00:00 11.6 2 Este 6 Nordeste 0 -- -- 99
2020-03-30 09:00:00 10.3 0 Calma 5 Nordeste 0 -- -- 98
2020-03-30 08:00:00 10 0 Calma 4 Este 0 -- -- 98
2020-03-30 07:00:00 9.9 0 Calma 4 Este 0 -- -- 98
2020-03-30 06:00:00 10.1 0 Calma 3 Sur 0 -- -- 97
2020-03-30 05:00:00 10.5 2 Sur 4 Sudoeste 0 -- -- 97
2020-03-30 04:00:00 10.9 0 Calma 4 Noroeste 0 -- -- 97
2020-03-30 03:00:00 11.1 0 Calma 4 Norte 0 -- -- 96
2020-03-30 02:00:00 11.1 3 Sudoeste 6 Sudoeste 0 -- -- 95
2020-03-30 01:00:00 11.7 3 Sudoeste 8 Sudoeste 0 -- -- 95
2020-03-30 00:00:00 12.1 0 Calma 5 Sur 0 -- -- 95
2020-03-29 23:00:00 12.5 0 Calma 9 Oeste 0 -- -- 94
2020-03-29 22:00:00 13.3 4 Oeste 9 Oeste 0 -- -- 93
2020-03-29 21:00:00 14.1 4 Oeste 8 Sudoeste 0 -- -- 91
2020-03-29 20:00:00 15.1 0 Calma 8 Oeste 0.2 -- -- 92
2020-03-29 19:00:00 15.1 7 Oeste 13 Oeste 3 -- -- 85
2020-03-29 18:00:00 17 4 Sudoeste 18 Sur 0.2 -- -- 70
2020-03-29 17:00:00 18.5 5 Sudoeste 12 Sudoeste 0 -- -- 58
2020-03-29 16:00:00 19.4 6 Sudeste 11 Este 0 -- -- 53
2020-03-29 15:00:00 20.3 4 Este 10 Este 0 -- -- 50
2020-03-29 14:00:00 19.6 4 Sudeste 9 Sudeste 0 -- -- 50
2020-03-29 13:00:00 18.4 5 Nordeste 12 Norte 0 -- -- 47
2020-03-29 12:00:00 17.1 3 Este 6 Sudeste 0 -- -- 58
2020-03-29 11:00:00 14.5 3 Sudeste 5 Sur 0 -- -- 63
2020-03-29 10:00:00 12.1 3 Sur 8 Sudeste 0 -- -- 78
2020-03-29 09:00:00 10.4 2 Este 9 Nordeste 0 -- -- 84
2020-03-29 08:00:00 9.9 0 Calma 10 Nordeste 0 -- -- 83
2020-03-29 07:00:00 10.3 0 Calma 7 Este 0 -- -- 81
2020-03-29 06:00:00 10.6 0 Calma 7 Este 0 -- -- 81
2020-03-29 05:00:00 11.5 0 Calma 14 Sudeste 0 -- -- 77
2020-03-29 03:00:00 12.3 7 Este 15 Este 0 -- -- 80
2020-03-29 01:00:00 10.8 2 Sudoeste 12 Sudeste 0 -- -- 87
2020-03-29 00:00:00 12.2 3 Este 9 Este 0 -- -- 86
2020-03-28 23:00:00 11.8 0 Calma 6 Este 0 -- -- 88
2020-03-28 22:00:00 12.1 0 Calma 5 Sudeste 0 -- -- 85
2020-03-28 21:00:00 12.8 0 Calma 5 Este 0 -- -- 80
2020-03-28 20:00:00 14.3 0 Calma 10 Sudeste 0 -- -- 74
2020-03-28 19:00:00 16.3 0 Calma 15 Sur 0 -- -- 65
2020-03-28 18:00:00 17.8 4 Este 19 Sur 0 -- -- 59
2020-03-28 17:00:00 19 7 Sudeste 24 Sur 0 -- -- 56
2020-03-28 16:00:00 19 12 Sur 27 Sur 0 -- -- 55
2020-03-28 15:00:00 21.3 15 Sur 28 Sur 0 -- -- 45
2020-03-28 14:00:00 20.6 9 Sur 24 Sur 0 -- -- 47
2020-03-28 13:00:00 19.4 9 Sudoeste 24 Sur 0 -- -- 48
2020-03-28 12:00:00 18.6 10 Sudoeste 24 Sur 0 -- -- 56
2020-03-28 11:00:00 17.2 13 Sur 22 Sur 0 -- -- 60
2020-03-28 10:00:00 13.7 3 Sudeste 8 Este 0 -- -- 79
2020-03-28 09:00:00 9.7 3 Este 6 Nordeste 0 -- -- 96
2020-03-28 08:00:00 8.2 2 Sudeste 6 Sudeste 0 -- -- 98
2020-03-28 07:00:00 7.7 0 Calma 6 Sudeste 0 -- -- 98
2020-03-28 06:00:00 8.2 0 Calma 4 Este 0 -- -- 97
2020-03-28 05:00:00 7.8 0 Calma 5 Este 0 -- -- 97
2020-03-28 04:00:00 8.3 0 Calma 6 Sudeste 0 -- -- 97
2020-03-28 03:00:00 8.5 0 Calma 4 Este 0 -- -- 96
2020-03-28 02:00:00 9 0 Calma 4 Este 0 -- -- 96
2020-03-28 01:00:00 9.4 0 Calma 5 Sudoeste 0 -- -- 95
2020-03-28 00:00:00 9.5 0 Calma 5 Sudoeste 0 -- -- 93
2020-03-27 23:00:00 10.5 0 Calma 7 Norte 0 -- -- 91
2020-03-27 22:00:00 10.8 0 Calma 5 Oeste 0 -- -- 88
2020-03-27 21:00:00 11.8 0 Calma 8 Oeste 0 -- -- 84
2020-03-27 20:00:00 13.1 4 Oeste 10 Sur 0 -- -- 79
2020-03-27 19:00:00 14.7 4 Sur 21 Sudoeste 0 -- -- 71
2020-03-27 18:00:00 16.8 7 Sudoeste 23 Sudoeste 0 -- -- 66
2020-03-27 17:00:00 18.5 10 Sudoeste 26 Sur 0 -- -- 54
2020-03-27 16:00:00 18.3 12 Sudoeste 26 Sur 0 -- -- 56
2020-03-27 15:00:00 17.9 12 Sudoeste 24 Sur 0 -- -- 64
2020-03-27 14:00:00 16.4 7 Sur 17 Oeste 0 -- -- 69
2020-03-27 13:00:00 13.7 3 Este 8 Sudeste 0 -- -- 80
2020-03-27 12:00:00 12.2 0 Calma 10 Norte 0 -- -- 82
2020-03-27 11:00:00 12.2 2 Sudoeste 11 Norte 0 -- -- 83
2020-03-27 10:00:00 11.4 4 Nordeste 10 Noroeste 0 -- -- 93
2020-03-27 09:00:00 10.4 3 Sudeste 6 Este 0 -- -- 97
2020-03-27 08:00:00 9.7 0 Calma 5 Este 0 -- -- 97
2020-03-27 07:00:00 9 2 Norte 4 Nordeste 0 -- -- 96
2020-03-27 06:00:00 9.5 0 Calma 8 Oeste 0 -- -- 92
2020-03-27 05:00:00 10.2 4 Oeste 11 Oeste 0 -- -- 91
2020-03-27 04:00:00 10 3 Oeste 5 Oeste 0 -- -- 93
2020-03-27 03:00:00 11 0 Calma 13 Noroeste 0 -- -- 90
2020-03-27 02:00:00 11.3 5 Oeste 10 Oeste 0 -- -- 91
2020-03-27 01:00:00 11.5 3 Oeste 8 Oeste 0 -- -- 93
2020-03-27 00:00:00 12.8 3 Sudoeste 11 Sudoeste 0 -- -- 91
2020-03-26 23:00:00 13 5 Oeste 15 Sudoeste 0 -- -- 92
2020-03-26 22:00:00 12.8 3 Sudoeste 9 Sudoeste 0 -- -- 92
2020-03-26 21:00:00 12.8 0 Calma 5 Sudoeste 0 -- -- 86
2020-03-26 20:00:00 14.8 0 Calma 14 Sudoeste 0 -- -- 76
2020-03-26 19:00:00 16.8 8 Sudoeste 24 Oeste 0 -- -- 64
2020-03-26 18:00:00 18.5 11 Sudoeste 28 Sudoeste 0 -- -- 66
2020-03-26 17:00:00 19 13 Sudoeste 26 Oeste 0 -- -- 62
2020-03-26 16:00:00 19.4 13 Sudoeste 32 Sudoeste 0 -- -- 60
2020-03-26 15:00:00 19.5 15 Sudoeste 29 Sudoeste 0 -- -- 58
2020-03-26 14:00:00 19.7 12 Sudoeste 30 Sudoeste 0 -- -- 54
2020-03-26 13:00:00 19.3 9 Sudoeste 25 Sudoeste 0 -- -- 67
2020-03-26 12:00:00 17.6 12 Sudoeste 22 Sudoeste 0 -- -- 73
2020-03-26 11:00:00 15.7 7 Sudoeste 17 Sudoeste 0 -- -- 82
2020-03-26 10:00:00 13.9 2 Sudeste 5 Sudeste 0 -- -- 85
2020-03-26 09:00:00 12.5 0 Calma 5 Sudeste 0 -- -- 89
2020-03-26 08:00:00 11.7 0 Calma 4 Nordeste 0 -- -- 91
2020-03-26 07:00:00 11.4 0 Calma 5 Sur 0 -- -- 92
2020-03-26 06:00:00 11.1 0 Calma 3 Sur 0 -- -- 91
2020-03-26 05:00:00 11 0 Calma 5 Sudeste 0 -- -- 89
2020-03-26 04:00:00 10.6 0 Calma 4 Nordeste 0 -- -- 91
2020-03-26 03:00:00 10 0 Calma 5 Este 0 -- -- 91
2020-03-26 02:00:00 9.9 0 Calma 4 Este 0 -- -- 92
2020-03-26 01:00:00 10.4 0 Calma 4 Este 0 -- -- 89
2020-03-26 00:00:00 11 0 Calma 4 Oeste 0 -- -- 88
2020-03-25 23:00:00 11.8 0 Calma 8 Sudeste 0 -- -- 87
2020-03-25 22:00:00 11.9 0 Calma 5 Nordeste 0 -- -- 86
2020-03-25 21:00:00 12.4 0 Calma 16 Sudeste 0 -- -- 83
2020-03-25 20:00:00 13.7 6 Sudoeste 13 Sudoeste 0 -- -- 76
2020-03-25 19:00:00 15.9 8 Sudoeste 15 Sur 0 -- -- 72
2020-03-25 18:00:00 17.7 2 Oeste 6 Oeste 0 -- -- 69
2020-03-25 17:00:00 18.2 3 Sudeste 8 Sudeste 0 -- -- 60
2020-03-25 16:00:00 18.3 3 Este 8 Sudeste 0 -- -- 62
2020-03-25 15:00:00 17.1 5 Sudeste 7 Sudeste 0 -- -- 64
2020-03-25 14:00:00 17.2 4 Este 15 Sudeste 0 -- -- 65
2020-03-25 13:00:00 16.6 2 Sudeste 7 Sur 0 -- -- 65
2020-03-25 12:00:00 14.4 4 Este 15 Sudeste 0 -- -- 75
2020-03-25 11:00:00 13.9 5 Este 21 Sudeste 0 -- -- 80
2020-03-25 10:00:00 12.8 7 Este 22 Sudeste 0.4 -- -- 89
2020-03-25 09:00:00 12.4 4 Este 10 Nordeste 0.4 -- -- 97
2020-03-25 08:00:00 12.3 0 Calma 4 Este 0.6 -- -- 97
2020-03-25 07:00:00 12.4 0 Calma 6 Nordeste 0.4 -- -- 97
2020-03-25 06:00:00 12.2 2 Norte 5 Sudoeste 0.2 -- -- 97
2020-03-25 05:00:00 12.1 0 Calma 4 Norte 0 -- -- 97
2020-03-25 04:00:00 12.1 2 Noroeste 4 Norte 0 -- -- 97
2020-03-25 03:00:00 12 0 Calma 5 Norte 0 -- -- 98
2020-03-25 02:00:00 11.7 0 Calma 4 Nordeste 0 -- -- 97
2020-03-25 01:00:00 11.9 0 Calma 5 Noroeste 0 -- -- 97
2020-03-25 00:00:00 12.2 3 Norte 8 Norte 0 -- -- 97
2020-03-24 23:00:00 12.7 0 Calma 5 Nordeste 0 -- -- 96
2020-03-24 22:00:00 13.3 2 Sudeste 12 Sur 0.4 -- -- 96
2020-03-24 21:00:00 14 5 Este 11 Sudeste 2.6 -- -- 96
2020-03-24 20:00:00 13.7 0 Calma 5 Noroeste 0.2 -- -- 94
2020-03-24 19:00:00 14.4 0 Calma 9 Noroeste 0 -- -- 91
2020-03-24 18:00:00 14.4 5 Oeste 10 Sudoeste 1 -- -- 90
2020-03-24 17:00:00 15.8 4 Sudoeste 9 Sur 0 -- -- 83
2020-03-24 16:00:00 16.9 4 Sudoeste 10 Sudeste 0 -- -- 77
2020-03-24 15:00:00 14.3 3 Sudoeste 16 Sur 0 -- -- 90
2020-03-24 14:00:00 14 0 Calma 5 Norte 0.2 -- -- 91
2020-03-24 13:00:00 13.2 2 Este 8 Este 0.6 -- -- 93
2020-03-24 12:00:00 12.3 3 Norte 9 Noroeste 0.6 -- -- 95
2020-03-24 11:00:00 12.1 3 Norte 13 Norte 0.4 -- -- 96
2020-03-24 10:00:00 11.1 2 Sudoeste 8 Norte 2.4 -- -- 97
2020-03-24 09:00:00 10.8 0 Calma 5 Oeste 2.2 -- -- 96
2020-03-24 08:00:00 10.7 0 Calma 9 Sudeste 0.8 -- -- 95
2020-03-24 07:00:00 11.1 5 Sudeste 39 Sudeste -- -- -- 91
2020-03-24 06:00:00 11.1 0 Calma 8 Nordeste 0 -- -- 89
2020-03-24 05:00:00 11.2 3 Nordeste 11 Nordeste 0 -- -- 87
2020-03-24 04:00:00 11.5 2 Noroeste 9 Este 0 -- -- 85
2020-03-24 03:00:00 11.9 3 Sur 12 Sur 0 -- -- 80
2020-03-24 02:00:00 12.1 3 Norte 10 Nordeste 0 -- -- 78
2020-03-24 01:00:00 12.4 3 Nordeste 10 Norte 0 -- -- 77
2020-03-24 00:00:00 12.3 5 Norte 10 Norte 0 -- -- 83
2020-03-23 23:00:00 12.6 3 Nordeste 16 Norte 0 -- -- 81
2020-03-23 22:00:00 12.4 0 Calma 6 Este 0.2 -- -- 90
2020-03-23 21:00:00 13.6 4 Este 12 Nordeste 0.2 -- -- 77
2020-03-23 20:00:00 14 0 Calma 12 Sudeste 0 -- -- 74
2020-03-23 19:00:00 14.5 2 Este 16 Sudeste 0 -- -- 68
2020-03-23 18:00:00 14.6 10 Sudeste 17 Sudeste 0 -- -- 70
2020-03-23 17:00:00 14.7 4 Este 22 Sudeste 0 -- -- 69
2020-03-23 16:00:00 14.8 8 Este 22 Sudeste 0 -- -- 66
2020-03-23 15:00:00 16.5 10 Este 23 Este 0 -- -- 57
2020-03-23 14:00:00 19.2 6 Nordeste 10 Nordeste 0 -- -- 44
2020-03-23 13:00:00 18.4 5 Sudeste 9 Sudeste 0 -- -- 44
2020-03-23 12:00:00 17.7 4 Este 6 Sudeste 0 -- -- 57
2020-03-23 11:00:00 15.6 3 Sudeste 7 Este 0 -- -- 68
2020-03-23 10:00:00 12.3 3 Sudeste 10 Sudeste 0 -- -- 85
2020-03-23 09:00:00 8.9 4 Este 10 Sudeste 0 -- -- 97
2020-03-23 08:00:00 7.6 0 Calma 4 Sudeste 0 -- -- 98
2020-03-23 07:00:00 7.7 0 Calma 5 Este 0 -- -- 97
2020-03-23 06:00:00 7.6 0 Calma 7 Sudeste 0 -- -- 97
2020-03-23 05:00:00 7.8 0 Calma 6 Nordeste 0 -- -- 97
2020-03-23 04:00:00 8.1 0 Calma 5 Nordeste 0 -- -- 97
2020-03-23 03:00:00 8.5 0 Calma 3 Sudoeste 0 -- -- 97
2020-03-23 02:00:00 8.8 0 Calma 5 Noroeste 0 -- -- 96
2020-03-23 01:00:00 9.5 0 Calma 4 Sudeste 0 -- -- 96
2020-03-23 00:00:00 10.1 0 Calma 3 Nordeste 0 -- -- 95
2020-03-22 23:00:00 10.7 0 Calma 5 Norte 0 -- -- 93
2020-03-22 22:00:00 10.7 0 Calma 3 Noroeste 0 -- -- 89
2020-03-22 21:00:00 11.5 0 Calma 4 Norte 0 -- -- 86
2020-03-22 20:00:00 13.1 4 Noroeste 9 Noroeste 0 -- -- 76
2020-03-22 19:00:00 14.6 6 Norte 14 Noroeste 0 -- -- 69
2020-03-22 18:00:00 15.4 3 Noroeste 16 Noroeste 0 -- -- 67
2020-03-22 17:00:00 15.7 6 Norte 14 Noroeste 0 -- -- 66
2020-03-22 16:00:00 16.4 3 Nordeste 18 Noroeste 0 -- -- 62
2020-03-22 15:00:00 17.2 5 Sudoeste 18 Sudoeste 0 -- -- 58
2020-03-22 14:00:00 16.6 3 Sudoeste 14 Sudoeste 0 -- -- 60
2020-03-22 13:00:00 16 5 Sur 15 Sur 0 -- -- 64
2020-03-22 12:00:00 15.4 5 Sur 14 Norte 0 -- -- 69
2020-03-22 11:00:00 15 4 Sudeste 8 Este 0 -- -- 73
2020-03-22 10:00:00 12.2 3 Este 8 Sudeste 0 -- -- 86
2020-03-22 09:00:00 9.8 3 Este 7 Este 0 -- -- 98
2020-03-22 08:00:00 8.5 0 Calma 4 Sudeste 0 -- -- 98
2020-03-22 07:00:00 8.5 0 Calma 4 Noroeste 0 -- -- 97
2020-03-22 06:00:00 8.8 0 Calma 5 Este 0 -- -- 97
2020-03-22 05:00:00 9.5 0 Calma 7 Sur 0 -- -- 96
2020-03-22 04:00:00 10.1 5 Sur 9 Sur 1.2 -- -- 97
2020-03-22 03:00:00 10 0 Calma 4 Nordeste 0.6 -- -- 96
2020-03-22 02:00:00 9.7 0 Calma 3 Norte 0.6 -- -- 95
2020-03-22 01:00:00 9.7 2 Sudoeste 16 Sur 0.2 -- -- 93
2020-03-22 00:00:00 9.9 6 Sudoeste 18 Sur 1.4 -- -- 93
2020-03-21 23:00:00 10.6 9 Sudoeste 28 Sur 0 -- -- 88
2020-03-21 22:00:00 10.9 5 Sudoeste 14 Sur 0 -- -- 92
2020-03-21 21:00:00 10.9 4 Noroeste 9 Noroeste 0 -- -- 95
2020-03-21 20:00:00 11 3 Sudoeste 10 Sudoeste 0 -- -- 92
2020-03-21 19:00:00 12.5 6 Sur 19 Sudoeste 0.2 -- -- 85
2020-03-21 18:00:00 13.2 6 Sur 25 Sudoeste 0.6 -- -- 88
2020-03-21 17:00:00 12.4 7 Sur 43 Sur 7 -- -- 88
2020-03-21 16:00:00 15 28 Sur 50 Sur 0.2 -- -- 84
2020-03-21 15:00:00 12.3 23 Sur 40 Sur 0.6 -- -- 91
2020-03-21 14:00:00 11.4 15 Sur 31 Sur 3.4 -- -- 90
2020-03-21 13:00:00 11.6 3 Sudoeste 19 Oeste 3.4 -- -- 91
2020-03-21 12:00:00 12.1 9 Sur 27 Sur 1.2 -- -- 87
2020-03-21 11:00:00 16.6 14 Sur 25 Sur 0 -- -- 69
2020-03-21 10:00:00 14 8 Sur 19 Sur 0 -- -- 83
2020-03-21 09:00:00 11.1 6 Sudeste 13 Sudeste 0 -- -- 96
2020-03-21 08:00:00 9.6 0 Calma 6 Sudoeste 0 -- -- 97
2020-03-21 07:00:00 9.5 0 Calma 3 Norte 0 -- -- 97
2020-03-21 06:00:00 9.7 0 Calma 4 Oeste 0 -- -- 96
2020-03-21 05:00:00 10.4 0 Calma 6 Oeste 1.2 -- -- 95
2020-03-21 04:00:00 11 2 Oeste 3 Oeste 0 -- -- 95
2020-03-21 03:00:00 11.6 3 Sur 8 Sudeste 0 -- -- 95
2020-03-21 02:00:00 11.8 3 Sudoeste 15 Sudoeste 0.2 -- -- 95
2020-03-21 01:00:00 11.9 4 Sudoeste 26 Sudoeste 1.4 -- -- 93
2020-03-21 00:00:00 13.7 13 Sur 38 Sur 1.6 -- -- 92
2020-03-20 23:00:00 15 17 Sur 37 Sudeste 0.4 -- -- 86
2020-03-20 22:00:00 16.1 18 Sudeste 36 Sudeste 0 -- -- 69
2020-03-20 21:00:00 15.6 21 Sudeste 40 Este 0 -- -- 71
2020-03-20 20:00:00 15.7 24 Sudeste 39 Sudeste 0 -- -- 71
2020-03-20 19:00:00 16.2 20 Sudeste 35 Sudeste 0 -- -- 68
2020-03-20 18:00:00 16.6 17 Este 34 Sudeste 0 -- -- 63
2020-03-20 17:00:00 18.1 18 Sudeste 35 Sudeste 0 -- -- 60
2020-03-20 16:00:00 17.6 24 Este 38 Sudeste 0 -- -- 60
2020-03-20 15:00:00 17.1 19 Este 45 Sudeste 0 -- -- 60
2020-03-20 14:00:00 16.9 27 Sudeste 45 Sudeste 0.2 -- -- 62
2020-03-20 13:00:00 17.2 17 Sudeste 41 Este 0 -- -- 62
2020-03-20 12:00:00 15.8 21 Sudeste 33 Sudeste 0.4 -- -- 75
2020-03-20 11:00:00 16.6 3 Sur 14 Sudeste 0 -- -- 60
2020-03-20 10:00:00 16.1 6 Sudeste 27 Sudeste 0 -- -- 65
2020-03-20 09:00:00 13.4 0 Calma 8 Sur 0 -- -- 73
2020-03-20 08:00:00 12.6 3 Sur 10 Sur 0 -- -- 74
2020-03-20 07:00:00 14.3 4 Sudeste 32 Sudeste 0 -- -- 64
2020-03-20 06:00:00 14.8 12 Este 35 Este 0 -- -- 67
2020-03-20 05:00:00 14.7 9 Este 27 Sudeste 0 -- -- 63
2020-03-20 04:00:00 15 15 Sudeste 30 Sudeste 0 -- -- 58
2020-03-20 03:00:00 15 9 Este 34 Sudeste 0 -- -- 62
2020-03-20 02:00:00 15.1 23 Sudeste 42 Sudeste 0 -- -- 62
2020-03-20 01:00:00 15.3 17 Sudeste 49 Sudeste 0 -- -- 67
2020-03-20 00:00:00 15.8 19 Sudeste 44 Este 0 -- -- 69
2020-03-19 23:00:00 15.7 11 Este 54 Este 0 -- -- 67
2020-03-19 22:00:00 16 21 Sudeste 39 Sudeste 0 -- -- 65
2020-03-19 21:00:00 16.1 9 Este 27 Este 0 -- -- 63
2020-03-19 20:00:00 16.1 11 Este 22 Nordeste 0 -- -- 63
2020-03-19 19:00:00 16.7 11 Este 33 Sudeste 0 -- -- 61
2020-03-19 18:00:00 17 24 Este 45 Sudeste 0 -- -- 60
2020-03-19 17:00:00 17.6 28 Sudeste 51 Sudeste 0 -- -- 58
2020-03-19 16:00:00 17.9 30 Sudeste 53 Sudeste 0 -- -- 58
2020-03-19 15:00:00 18.5 31 Sudeste 52 Sudeste 0 -- -- 53
2020-03-19 14:00:00 18.5 19 Este 44 Sudeste 0 -- -- 55
2020-03-19 13:00:00 18.2 26 Este 50 Sudeste 0 -- -- 55
2020-03-19 12:00:00 18.6 22 Este 52 Sudeste 0 -- -- 52
2020-03-19 11:00:00 18.1 17 Sudeste 46 Sudeste 0 -- -- 55
2020-03-19 10:00:00 16.7 14 Este 44 Sudeste 0 -- -- 60
2020-03-19 09:00:00 15.9 21 Este 36 Este 0 -- -- 64
2020-03-19 08:00:00 16.2 10 Este 41 Este 0 -- -- 61
2020-03-19 07:00:00 15.8 19 Este 46 Este 0 -- -- 65
2020-03-19 06:00:00 16.1 21 Este 43 Sudeste 0 -- -- 65
2020-03-19 05:00:00 16.1 24 Sudeste 36 Sudeste 0 -- -- 65
2020-03-19 04:00:00 16.2 21 Sudeste 36 Sudeste 0 -- -- 63
2020-03-19 03:00:00 16 25 Sudeste 51 Sudeste 0 -- -- 63
2020-03-19 02:00:00 16.3 29 Sudeste 60 Sudeste 0 -- -- 61
2020-03-19 01:00:00 16.9 27 Sudeste 52 Sudeste 0 -- -- 57
2020-03-19 00:00:00 16.5 20 Sudeste 57 Sudeste 0 -- -- 58
2020-03-18 23:00:00 16.6 36 Sudeste 67 Sudeste 0 -- -- 59
2020-03-18 22:00:00 16.5 27 Sudeste 48 Sudeste 0 -- -- 61
2020-03-18 21:00:00 16.9 17 Este 48 Sudeste 0 -- -- 58
2020-03-18 20:00:00 17.2 17 Este 45 Sudeste 0 -- -- 58
2020-03-18 19:00:00 17.6 22 Este 41 Sudeste 0 -- -- 56
2020-03-18 18:00:00 18.5 15 Este 30 Este 0 -- -- 52
2020-03-18 17:00:00 19.2 12 Este 53 Sudeste 0 -- -- 51
2020-03-18 16:00:00 19.4 15 Este 46 Sudeste 0 -- -- 53
2020-03-18 15:00:00 19.6 11 Sudeste 40 Sudeste 0 -- -- 51
2020-03-18 14:00:00 19.8 15 Este 63 Sudeste 0 -- -- 53
2020-03-18 13:00:00 19.3 28 Este 69 Este 0 -- -- 51
2020-03-18 12:00:00 18.9 32 Este 71 Este 0 -- -- 56
2020-03-18 11:00:00 18.6 22 Este 54 Sudeste 0 -- -- 55
2020-03-18 10:00:00 17.3 28 Sudeste 66 Este 0 -- -- 61
2020-03-18 09:00:00 16.8 23 Sudeste 54 Este 0 -- -- 64
2020-03-18 08:00:00 16.7 10 Sudeste 42 Sudeste 0 -- -- 64
2020-03-18 07:00:00 16.8 7 Sudeste 32 Sudeste 0 -- -- 63
2020-03-18 06:00:00 17.1 19 Sudeste 40 Sudeste 0 -- -- 62
2020-03-18 05:00:00 17.4 21 Este 49 Este 0 -- -- 60
2020-03-18 04:00:00 17.2 20 Este 41 Sudeste 0 -- -- 63
2020-03-18 03:00:00 16.9 3 Norte 36 Sudeste 0 -- -- 62
2020-03-18 02:00:00 15.8 10 Este 37 Sudeste 0.8 -- -- 76
2020-03-18 01:00:00 15.2 2 Norte 10 Norte 0 -- -- 63
2020-03-18 00:00:00 15.5 3 Norte 12 Oeste 0 -- -- 60
2020-03-17 23:00:00 15.6 5 Sur 16 Norte 0 -- -- 63
2020-03-17 22:00:00 14.8 5 Norte 14 Norte 0 -- -- 63
2020-03-17 21:00:00 15 5 Noroeste 13 Este 0 -- -- 51
2020-03-17 20:00:00 15.3 7 Este 16 Este 0 -- -- 49
2020-03-17 19:00:00 15.8 12 Este 37 Este 0 -- -- 51
2020-03-17 18:00:00 16.9 19 Este 41 Sudeste 0 -- -- 44
2020-03-17 17:00:00 16.8 18 Sudeste 47 Sudeste 0 -- -- 46
2020-03-17 16:00:00 16 18 Este 42 Sudeste 0 -- -- 46
2020-03-17 15:00:00 16 29 Sudeste 50 Este 0 -- -- 46
2020-03-17 14:00:00 17.7 27 Sudeste 53 Sudeste 0 -- -- 40
2020-03-17 13:00:00 16.2 26 Sudeste 50 Sur 0 -- -- 49
2020-03-17 12:00:00 15.5 23 Sudeste 41 Sudeste 0 -- -- 62
2020-03-17 11:00:00 11.1 8 Sudeste 29 Sudeste 0.4 -- -- 79
2020-03-17 10:00:00 10.8 18 Sudeste 42 Sudeste 0.2 -- -- 77
2020-03-17 09:00:00 10.7 23 Sudeste 42 Sudeste 0 -- -- 83
2020-03-17 08:00:00 9.9 17 Sur 28 Sudeste 0 -- -- 88
2020-03-17 07:00:00 8.9 6 Este 15 Sudeste 0.2 -- -- 91
2020-03-17 06:00:00 8.6 6 Este 19 Este 0 -- -- 92
2020-03-17 05:00:00 8.1 4 Este 13 Este 0.2 -- -- 94
2020-03-17 04:00:00 7.9 4 Este 12 Nordeste 0.8 -- -- 93
2020-03-17 03:00:00 7.9 0 Calma 14 Norte 0.8 -- -- 91
2020-03-17 02:00:00 8.9 9 Norte 18 Norte 0.4 -- -- 84
2020-03-17 01:00:00 10.2 3 Norte 12 Norte 0 -- -- 71
2020-03-17 00:00:00 10.6 2 Noroeste 4 Norte 0 -- -- 56
2020-03-16 23:00:00 11.7 0 Calma 11 Norte 0 -- -- 51
2020-03-16 22:00:00 12.2 4 Norte 23 Noroeste 0 -- -- 46
2020-03-16 21:00:00 12.9 11 Norte 34 Norte 0 -- -- 44
2020-03-16 20:00:00 14.2 13 Norte 24 Norte 0 -- -- 34
2020-03-16 19:00:00 15 6 Noroeste 24 Norte 0 -- -- 31
2020-03-16 18:00:00 15.5 9 Norte 39 Norte 0 -- -- 30
2020-03-16 17:00:00 16.1 12 Norte 28 Noroeste 0 -- -- 28
2020-03-16 16:00:00 16.1 8 Norte 30 Norte 0 -- -- 34
2020-03-16 15:00:00 16.6 14 Norte 35 Noroeste 0 -- -- 26
2020-03-16 14:00:00 15.8 15 Norte 39 Norte 0 -- -- 29
2020-03-16 13:00:00 14.6 8 Norte 25 Noroeste 0 -- -- 34
2020-03-16 12:00:00 13.7 9 Norte 26 Noroeste 0 -- -- 42
2020-03-16 11:00:00 12.7 9 Norte 25 Norte 0 -- -- 46
2020-03-16 10:00:00 11.5 8 Norte 23 Norte 0 -- -- 50
2020-03-16 09:00:00 9.4 8 Norte 21 Noroeste 0 -- -- 58
2020-03-16 08:00:00 9.6 5 Norte 17 Noroeste 0 -- -- 58
2020-03-16 07:00:00 10.5 6 Norte 23 Norte 0 -- -- 54
2020-03-16 06:00:00 11.2 8 Noroeste 19 Noroeste 0 -- -- 63
2020-03-16 05:00:00 11.9 7 Noroeste 25 Noroeste 0 -- -- 69
2020-03-16 04:00:00 12.5 5 Oeste 14 Noroeste 0 -- -- 80
2020-03-16 03:00:00 12.9 4 Noroeste 10 Norte 0.4 -- -- 88
2020-03-16 02:00:00 13.6 3 Este 7 Nordeste 0 -- -- 86
2020-03-16 01:00:00 13.8 4 Este 8 Sudeste 0 -- -- 89
2020-03-16 00:00:00 13 3 Sudeste 16 Oeste 0 -- -- 88
2020-03-15 23:00:00 13.1 4 Noroeste 10 Oeste 0 -- -- 85
2020-03-15 22:00:00 13.8 3 Noroeste 17 Oeste 0 -- -- 81
2020-03-15 21:00:00 15 12 Oeste 20 Oeste 0 -- -- 75
2020-03-15 20:00:00 16.8 6 Noroeste 10 Oeste 0 -- -- 67
2020-03-15 19:00:00 18.8 4 Sudoeste 15 Sudoeste 0 -- -- 61
2020-03-15 18:00:00 22 10 Sur 18 Sur 0 -- -- 53
2020-03-15 17:00:00 22.5 3 Este 14 Sudeste 0 -- -- 54
2020-03-15 16:00:00 22.9 7 Este 12 Sudeste 0 -- -- 52
2020-03-15 15:00:00 22.5 5 Norte 9 Sudeste 0 -- -- 49
2020-03-15 14:00:00 20.9 3 Sudeste 8 Nordeste 0 -- -- 55
2020-03-15 13:00:00 19.9 3 Nordeste 7 Norte 0 -- -- 57
2020-03-15 12:00:00 20.6 3 Nordeste 9 Este 0 -- -- 55
2020-03-15 11:00:00 17.2 0 Calma 6 Sudeste 0 -- -- 65
2020-03-15 10:00:00 15.7 3 Sur 8 Sudeste 0 -- -- 76
2020-03-15 09:00:00 14 3 Este 8 Sudeste 0 -- -- 86
2020-03-15 08:00:00 12.1 2 Oeste 9 Noroeste 0 -- -- 91
2020-03-15 07:00:00 12 0 Calma 6 Norte 0 -- -- 92
2020-03-15 06:00:00 12 0 Calma 9 Este 0 -- -- 92
2020-03-15 05:00:00 12.1 2 Nordeste 8 Nordeste 0 -- -- 90
2020-03-15 04:00:00 12.6 3 Norte 7 Nordeste 0 -- -- 88
2020-03-15 03:00:00 12.6 2 Noroeste 6 Noroeste 0 -- -- 91
2020-03-15 02:00:00 13 0 Calma 7 Norte 0 -- -- 87
2020-03-15 01:00:00 13.5 3 Norte 5 Norte 0 -- -- 88
2020-03-15 00:00:00 14 2 Sudoeste 6 Noroeste 0 -- -- 88
2020-03-14 23:00:00 14 4 Norte 6 Noroeste 0 -- -- 89
2020-03-14 22:00:00 14.5 0 Calma 14 Oeste 0 -- -- 83
2020-03-14 21:00:00 16.1 10 Noroeste 19 Oeste 0 -- -- 77
2020-03-14 20:00:00 17.6 9 Oeste 17 Oeste 0 -- -- 69
2020-03-14 19:00:00 20.5 7 Sudoeste 18 Sudoeste 0 -- -- 58
2020-03-14 18:00:00 23.7 4 Noroeste 12 Sudoeste 0 -- -- 46
2020-03-14 17:00:00 23.7 4 Este 9 Este 0 -- -- 49
2020-03-14 16:00:00 23.6 4 Este 17 Nordeste 0 -- -- 52
2020-03-14 15:00:00 22.7 4 Este 13 Sudeste 0 -- -- 57
2020-03-14 14:00:00 21.5 6 Noroeste 17 Noroeste 0 -- -- 59
2020-03-14 13:00:00 20.1 6 Norte 13 Norte 0 -- -- 64
2020-03-14 12:00:00 18.3 4 Sudeste 7 Sudeste 0 -- -- 73
2020-03-14 11:00:00 15 4 Sudeste 6 Sudeste 0 -- -- 86
2020-03-14 10:00:00 11.9 2 Sur 10 Sudeste 0 -- -- 98
2020-03-14 09:00:00 10.9 5 Este 14 Este 0 -- -- 98
2020-03-14 08:00:00 10 5 Sudeste 9 Sudeste 0 -- -- 98
2020-03-14 07:00:00 10.3 4 Sur 7 Sur 0 -- -- 97
2020-03-14 06:00:00 10.1 0 Calma 3 Nordeste 0 -- -- 97
2020-03-14 05:00:00 10.4 0 Calma 6 Este 0 -- -- 97
2020-03-14 04:00:00 11.4 3 Este 6 Este 0 -- -- 97
2020-03-14 03:00:00 10.9 0 Calma 2 Sur 0 -- -- 96
2020-03-14 02:00:00 11.6 0 Calma 4 Nordeste 0 -- -- 95
2020-03-14 01:00:00 11.7 0 Calma 3 Nordeste 0 -- -- 95
2020-03-14 00:00:00 12.3 0 Calma 3 Nordeste 0 -- -- 92
2020-03-13 23:00:00 13.3 0 Calma 11 Oeste 0 -- -- 87
2020-03-13 22:00:00 14 5 Oeste 10 Noroeste 0 -- -- 85
2020-03-13 21:00:00 14.6 2 Sudoeste 15 Oeste 0 -- -- 82
2020-03-13 20:00:00 15.9 9 Oeste 17 Oeste 0 -- -- 77
2020-03-13 19:00:00 18.4 7 Sudoeste 17 Sudoeste 0 -- -- 67
2020-03-13 18:00:00 21.1 4 Noroeste 13 Sudoeste 0 -- -- 59
2020-03-13 17:00:00 22.5 5 Noroeste 16 Sudoeste 0 -- -- 55
2020-03-13 16:00:00 22.7 6 Sudoeste 17 Sur 0 -- -- 52
2020-03-13 15:00:00 22.3 9 Sudoeste 18 Sudeste 0 -- -- 53
2020-03-13 14:00:00 21.2 7 Sudoeste 21 Sudoeste 0 -- -- 58
2020-03-13 13:00:00 19.7 10 Sur 19 Sur 0 -- -- 62
2020-03-13 12:00:00 18.1 8 Sur 17 Sur 0 -- -- 68
2020-03-13 11:00:00 15.8 6 Sudoeste 14 Oeste 0 -- -- 75
2020-03-13 10:00:00 14.5 6 Sur 17 Sur 0 -- -- 81
2020-03-13 09:00:00 13.8 5 Sudoeste 12 Sudoeste 0 -- -- 85
2020-03-13 08:00:00 13.5 3 Sudoeste 10 Sur 0 -- -- 90
2020-03-13 07:00:00 13.3 5 Sur 10 Sudoeste 0 -- -- 95
2020-03-13 06:00:00 13.1 3 Sudoeste 6 Sur 0 -- -- 97
2020-03-13 05:00:00 13.1 0 Calma 8 Sur 0 -- -- 97
2020-03-13 04:00:00 13.4 4 Sur 15 Oeste 0 -- -- 97
2020-03-13 03:00:00 12.9 7 Oeste 13 Sudoeste 0 -- -- 97
2020-03-13 02:00:00 12.5 0 Calma 4 Sudeste 0 -- -- 96
2020-03-13 01:00:00 12.7 0 Calma 3 Nordeste 0 -- -- 95
2020-03-13 00:00:00 13.1 0 Calma 3 Sudoeste 0 -- -- 94
2020-03-12 23:00:00 13.9 0 Calma 4 Este 0 -- -- 93
2020-03-12 22:00:00 15 0 Calma 7 Oeste 0 -- -- 89
2020-03-12 21:00:00 15.7 4 Noroeste 9 Noroeste 0 -- -- 82
2020-03-12 20:00:00 16.8 6 Oeste 15 Oeste 0 -- -- 77
2020-03-12 19:00:00 18.5 7 Noroeste 16 Noroeste 0 -- -- 70
2020-03-12 18:00:00 20.8 8 Noroeste 24 Sudoeste 0 -- -- 55
2020-03-12 17:00:00 24.1 12 Oeste 27 Oeste 0 -- -- 36
2020-03-12 16:00:00 25.3 10 Sudoeste 27 Sudoeste 0 -- -- 35
2020-03-12 15:00:00 27.1 10 Sudoeste 20 Sur 0 -- -- 33
2020-03-12 14:00:00 25.2 7 Oeste 20 Sur 0 -- -- 34
2020-03-12 13:00:00 22.1 5 Este 15 Noroeste 0 -- -- 50
2020-03-12 12:00:00 19.4 7 Norte 15 Noroeste 0 -- -- 58
2020-03-12 11:00:00 17.4 6 Noroeste 19 Noroeste 0 -- -- 66
2020-03-12 10:00:00 15.4 10 Oeste 20 Oeste 0 -- -- 68
2020-03-12 09:00:00 14 3 Sur 5 Sudeste 0 -- -- 72
2020-03-12 08:00:00 13.5 3 Este 24 Oeste 0 -- -- 70
2020-03-12 07:00:00 14.7 7 Noroeste 22 Noroeste 0 -- -- 54
2020-03-12 06:00:00 15.6 2 Sudeste 7 Noroeste 0 -- -- 48
2020-03-12 05:00:00 15.7 4 Norte 6 Norte 0 -- -- 47
2020-03-12 04:00:00 14.9 5 Norte 10 Nordeste 0 -- -- 63
2020-03-12 03:00:00 15.8 0 Calma 5 Noroeste 0 -- -- 48
2020-03-12 02:00:00 14 0 Calma 5 Norte 0 -- -- 64
2020-03-12 01:00:00 14.7 3 Norte 5 Norte 0 -- -- 69
2020-03-12 00:00:00 16 0 Calma 5 Sudeste 0 -- -- 49
2020-03-11 23:00:00 16.7 0 Calma 6 Norte 0 -- -- 48
2020-03-11 22:00:00 18.1 0 Calma 8 Sudeste 0 -- -- 44
2020-03-11 21:00:00 19.6 3 Sudoeste 11 Sudeste 0 -- -- 42
2020-03-11 20:00:00 21.7 0 Calma 14 Sur 0 -- -- 35
2020-03-11 19:00:00 24.4 4 Sur 24 Sudeste 0 -- -- 29
2020-03-11 18:00:00 26.4 10 Sudeste 26 Sudeste 0 -- -- 26
2020-03-11 17:00:00 26 7 Este 27 Sudeste 0 -- -- 26
2020-03-11 16:00:00 25.4 19 Sudeste 30 Sudeste 0 -- -- 33
2020-03-11 15:00:00 25.9 14 Sudeste 23 Sudeste 0 -- -- 31
2020-03-11 14:00:00 26.6 8 Este 19 Sudeste 0 -- -- 28
2020-03-11 13:00:00 26.1 11 Este 20 Sudeste 0 -- -- 27
2020-03-11 12:00:00 24.9 4 Sudeste 9 Este 0 -- -- 28
2020-03-11 11:00:00 20.8 3 Sudeste 9 Nordeste 0 -- -- 35
2020-03-11 10:00:00 18 3 Este 9 Nordeste 0 -- -- 46
2020-03-11 09:00:00 12.9 3 Sur 9 Sudeste 0 -- -- 61
2020-03-11 08:00:00 10.7 2 Sudeste 6 Este 0 -- -- 82
2020-03-11 07:00:00 11.2 0 Calma 5 Nordeste 0 -- -- 83
2020-03-11 06:00:00 11.6 0 Calma 4 Nordeste 0 -- -- 73
2020-03-11 05:00:00 12.4 0 Calma 5 Sudoeste 0 -- -- 64
2020-03-11 04:00:00 13.3 2 Sudoeste 9 Este 0 -- -- 58
2020-03-11 03:00:00 13.8 5 Sudeste 12 Sudeste 0 -- -- 56
2020-03-11 02:00:00 15.4 9 Noroeste 19 Noroeste 0 -- -- 42
2020-03-11 01:00:00 15.4 2 Nordeste 5 Norte 0 -- -- 47
2020-03-11 00:00:00 16.2 0 Calma 12 Nordeste 0 -- -- 44
2020-03-10 23:00:00 16.9 4 Nordeste 14 Este 0 -- -- 41
2020-03-10 22:00:00 17.7 8 Nordeste 26 Este 0 -- -- 39
2020-03-10 21:00:00 17.1 3 Nordeste 18 Este 0 -- -- 43
2020-03-10 20:00:00 17.9 3 Norte 13 Este 0 -- -- 43
2020-03-10 19:00:00 19.6 3 Nordeste 13 Este 0 -- -- 46
2020-03-10 18:00:00 21.9 7 Este 14 Nordeste 0 -- -- 42
2020-03-10 17:00:00 23.5 8 Este 19 Este 0 -- -- 39
2020-03-10 16:00:00 25.2 9 Este 19 Este 0 -- -- 33
2020-03-10 15:00:00 27 3 Nordeste 9 Nordeste 0 -- -- 24
2020-03-10 14:00:00 25.5 5 Norte 11 Norte 0 -- -- 27
2020-03-10 13:00:00 23.8 6 Noroeste 13 Norte 0 -- -- 30
2020-03-10 12:00:00 22.3 5 Sudoeste 17 Sudoeste 0 -- -- 33
2020-03-10 11:00:00 19.7 3 Este 5 Sudeste 0 -- -- 34
2020-03-10 10:00:00 16.5 3 Sur 8 Sudoeste 0 -- -- 44
2020-03-10 09:00:00 12.2 0 Calma 7 Sur 0 -- -- 70
2020-03-10 08:00:00 10.8 5 Sudoeste 9 Sur 0 -- -- 85
2020-03-10 07:00:00 11.2 5 Sudeste 18 Sudeste 0 -- -- 78
2020-03-10 06:00:00 11 5 Sudeste 14 Sudeste 0 -- -- 80
2020-03-10 05:00:00 10.5 3 Este 8 Sudeste 0 -- -- 84
2020-03-10 04:00:00 10.6 3 Sudoeste 9 Norte 0 -- -- 82
2020-03-10 03:00:00 13.7 2 Norte 29 Noroeste 0 -- -- 65
2020-03-10 02:00:00 13.1 6 Noroeste 14 Norte 0 -- -- 66
2020-03-10 01:00:00 11.3 0 Calma 4 Sur 0 -- -- 87
2020-03-10 00:00:00 12.4 0 Calma 4 Norte 0 -- -- 82
2020-03-09 23:00:00 13.3 0 Calma 6 Norte 0 -- -- 68
2020-03-09 22:00:00 14.1 0 Calma 6 Nordeste 0 -- -- 62
2020-03-09 21:00:00 16.1 0 Calma 13 Noroeste 0 -- -- 52
2020-03-09 20:00:00 17.8 9 Noroeste 15 Noroeste 0 -- -- 43
2020-03-09 19:00:00 19.9 4 Noroeste 21 Nordeste 0 -- -- 35
2020-03-09 18:00:00 23.2 8 Norte 25 Norte 0 -- -- 22
2020-03-09 17:00:00 23.8 10 Norte 26 Norte 0 -- -- 25
2020-03-09 16:00:00 24.2 9 Norte 23 Norte 0 -- -- 23
2020-03-09 15:00:00 23.7 10 Norte 26 Norte 0 -- -- 22
2020-03-09 14:00:00 22.9 12 Norte 27 Norte 0 -- -- 24
2020-03-09 13:00:00 22 10 Norte 25 Nordeste 0 -- -- 30
2020-03-09 12:00:00 20.7 11 Norte 21 Nordeste 0 -- -- 41
2020-03-09 11:00:00 18.8 10 Norte 24 Nordeste 0 -- -- 48
2020-03-09 10:00:00 14.1 3 Sudeste 6 Sudeste 0 -- -- 61
2020-03-09 09:00:00 10.6 0 Calma 6 Sudeste 0 -- -- 77
2020-03-09 08:00:00 8.4 0 Calma 4 Noroeste 0 -- -- 87
2020-03-09 07:00:00 8.3 0 Calma 6 Norte 0 -- -- 82
2020-03-09 06:00:00 9 0 Calma 8 Nordeste 0 -- -- 82
2020-03-09 05:00:00 9 2 Sur 6 Sur 0 -- -- 80
2020-03-09 04:00:00 9.3 0 Calma 4 Sudeste 0 -- -- 77
2020-03-09 03:00:00 9.9 0 Calma 4 Sudeste 0 -- -- 83
2020-03-09 02:00:00 11 2 Noroeste 6 Sur 0 -- -- 77
2020-03-09 01:00:00 11.7 0 Calma 3 Este 0 -- -- 68
2020-03-09 00:00:00 13.3 3 Norte 5 Norte 0 -- -- 60
2020-03-08 23:00:00 14.8 0 Calma 15 Noroeste 0 -- -- 46
2020-03-08 22:00:00 16.2 10 Noroeste 18 Oeste 0 -- -- 39
2020-03-08 21:00:00 15.6 0 Calma 13 Oeste 0 -- -- 41
2020-03-08 20:00:00 18.1 3 Noroeste 14 Noroeste 0 -- -- 30
2020-03-08 19:00:00 21.1 6 Norte 19 Noroeste 0 -- -- 27
2020-03-08 18:00:00 24 4 Noroeste 15 Norte 0 -- -- 20
2020-03-08 17:00:00 24.6 6 Noroeste 12 Noroeste 0 -- -- 19
2020-03-08 16:00:00 24.2 3 Este 12 Noroeste 0 -- -- 27
2020-03-08 15:00:00 23 3 Nordeste 12 Noroeste 0 -- -- 25
2020-03-08 14:00:00 21.7 6 Sudeste 8 Sudeste 0 -- -- 40
2020-03-08 13:00:00 20.3 4 Nordeste 13 Noroeste 0 -- -- 32
2020-03-08 12:00:00 18.2 7 Norte 13 Norte 0 -- -- 36
2020-03-08 11:00:00 15 4 Sudeste 6 Sur 0 -- -- 49
2020-03-08 10:00:00 12.4 2 Sur 7 Este 0 -- -- 54
2020-03-08 09:00:00 8.8 3 Sudeste 5 Sudeste 0 -- -- 75
2020-03-08 08:00:00 6.4 0 Calma 5 Este 0 -- -- 86
2020-03-08 07:00:00 7 0 Calma 4 Este 0 -- -- 86
2020-03-08 06:00:00 7.2 0 Calma 3 Sudeste 0 -- -- 80
2020-03-08 05:00:00 7.5 2 Sudoeste 6 Sudoeste 0 -- -- 76
2020-03-08 04:00:00 8.1 0 Calma 10 Sur 0 -- -- 75
2020-03-08 03:00:00 8.5 3 Norte 5 Norte 0 -- -- 74
2020-03-08 02:00:00 9.1 0 Calma 3 Noroeste 0 -- -- 79
2020-03-08 01:00:00 9.9 0 Calma 4 Sur 0 -- -- 75
2020-03-08 00:00:00 10.9 3 Sur 8 Sudoeste 0 -- -- 56
2020-03-07 23:00:00 11.6 0 Calma 4 Sudoeste 0 -- -- 53
2020-03-07 22:00:00 13.9 0 Calma 7 Nordeste 0 -- -- 48
2020-03-07 21:00:00 15.7 3 Norte 11 Norte 0 -- -- 35
2020-03-07 20:00:00 16.9 2 Noroeste 22 Norte 0 -- -- 35
2020-03-07 19:00:00 18.5 9 Norte 34 Nordeste 0 -- -- 31
2020-03-07 18:00:00 21.2 12 Norte 25 Nordeste 0 -- -- 25
2020-03-07 17:00:00 22.4 7 Norte 24 Nordeste 0 -- -- 23
2020-03-07 16:00:00 23.1 5 Nordeste 16 Norte 0 -- -- 16
2020-03-07 15:00:00 22.2 4 Este 13 Norte 0 -- -- 22
2020-03-07 14:00:00 22.2 5 Norte 15 Norte 0 -- -- 19
2020-03-07 13:00:00 21.1 4 Nordeste 20 Norte 0 -- -- 23
2020-03-07 12:00:00 18 3 Sudeste 9 Sudeste 0 -- -- 37
2020-03-07 11:00:00 15 3 Sudeste 11 Sudeste 0 -- -- 49
2020-03-07 10:00:00 12.4 7 Sudeste 16 Sudeste 0 -- -- 61
2020-03-07 09:00:00 9.7 6 Este 15 Sudeste 0 -- -- 67
2020-03-07 08:00:00 8.2 3 Este 16 Sudeste 0 -- -- 69
2020-03-07 07:00:00 8.6 0 Calma 14 Nordeste 0 -- -- 68
2020-03-07 06:00:00 9.7 7 Norte 24 Norte 0 -- -- 62
2020-03-07 05:00:00 10.8 14 Norte 33 Norte 0 -- -- 59
2020-03-07 04:00:00 11.1 14 Norte 26 Norte 0 -- -- 59
2020-03-07 03:00:00 11.7 16 Norte 31 Norte 0 -- -- 57
2020-03-07 02:00:00 10.2 5 Norte 15 Norte 0 -- -- 71
2020-03-07 01:00:00 9.9 3 Norte 5 Norte 0 -- -- 78
2020-03-07 00:00:00 11.3 0 Calma 15 Norte 0 -- -- 65
2020-03-06 23:00:00 12.4 6 Noroeste 14 Norte 0 -- -- 55
2020-03-06 22:00:00 11.1 5 Oeste 9 Oeste 0 -- -- 67
2020-03-06 21:00:00 12.2 3 Sudoeste 8 Sudoeste 0 -- -- 62
2020-03-06 20:00:00 14.2 2 Sudeste 9 Sur 0 -- -- 54
2020-03-06 19:00:00 16.8 4 Sur 14 Noroeste 0 -- -- 44
2020-03-06 18:00:00 18.4 6 Norte 28 Noroeste 0 -- -- 34
2020-03-06 17:00:00 18.9 10 Norte 24 Norte 0 -- -- 34
2020-03-06 16:00:00 18.5 9 Noroeste 26 Oeste 0 -- -- 37
2020-03-06 15:00:00 17.9 10 Norte 29 Noroeste 0 -- -- 49
2020-03-06 14:00:00 17.3 11 Norte 31 Norte 0 -- -- 53
2020-03-06 13:00:00 16.3 10 Norte 32 Norte 0 -- -- 56
2020-03-06 12:00:00 15.4 12 Norte 31 Noroeste 0 -- -- 63
2020-03-06 11:00:00 14.1 9 Norte 24 Sudoeste 0 -- -- 74
2020-03-06 10:00:00 11.8 3 Noroeste 11 Noroeste 0 -- -- 81
2020-03-06 09:00:00 9.1 3 Este 8 Noroeste 0 -- -- 94
2020-03-06 08:00:00 6.7 0 Calma 4 Sudoeste 0 -- -- 96
2020-03-06 07:00:00 6.9 0 Calma 5 Norte 0 -- -- 93
2020-03-06 06:00:00 7.6 4 Norte 14 Nordeste 0 -- -- 90
2020-03-06 05:00:00 8.3 3 Noroeste 10 Noroeste 0 -- -- 87
2020-03-06 04:00:00 8.9 3 Noroeste 16 Noroeste 0 -- -- 84
2020-03-06 03:00:00 9.7 4 Noroeste 16 Norte 0 -- -- 80
2020-03-06 02:00:00 10 4 Noroeste 18 Oeste 0 -- -- 80
2020-03-06 01:00:00 10 4 Sudeste 10 Este 0 -- -- 81
2020-03-06 00:00:00 10.9 0 Calma 12 Norte 0 -- -- 81
2020-03-05 23:00:00 10.8 0 Calma 6 Este 0 -- -- 94
2020-03-05 22:00:00 11.2 0 Calma 5 Oeste 0 -- -- 92
2020-03-05 21:00:00 11.9 2 Sur 5 Sudoeste 0 -- -- 86
2020-03-05 20:00:00 14.2 3 Sur 13 Este 0 -- -- 75
2020-03-05 19:00:00 16.5 4 Nordeste 11 Noroeste 0 -- -- 61
2020-03-05 18:00:00 17.6 4 Nordeste 13 Sudoeste 0 -- -- 63
2020-03-05 17:00:00 17.4 4 Sudeste 19 Sudoeste 0 -- -- 65
2020-03-05 16:00:00 16.7 10 Sudoeste 27 Sur 0 -- -- 77
2020-03-05 15:00:00 16.4 9 Sudoeste 23 Sur 0 -- -- 79
2020-03-05 14:00:00 16.2 9 Sudoeste 17 Sudoeste 0 -- -- 76
2020-03-05 13:00:00 15.4 8 Oeste 19 Sudoeste 0 -- -- 81
2020-03-05 12:00:00 13.6 4 Este 7 Este 0 -- -- 97
2020-03-05 11:00:00 12 4 Sudeste 9 Sur 0 -- -- 99
2020-03-05 10:00:00 10.4 2 Sur 15 Sudoeste 0 -- -- 99
2020-03-05 09:00:00 10.7 0 Calma 12 Oeste 0 -- -- 98
2020-03-05 08:00:00 10 3 Noroeste 8 Noroeste 0 -- -- 98
2020-03-05 07:00:00 9.4 0 Calma 6 Sudeste 0 -- -- 97
2020-03-05 06:00:00 9.3 0 Calma 4 Este 0 -- -- 97
2020-03-05 05:00:00 10 0 Calma 4 Sudeste 0 -- -- 97
2020-03-05 04:00:00 10.4 0 Calma 3 Este 0 -- -- 97
2020-03-05 03:00:00 10.3 0 Calma 3 Este 0 -- -- 96
2020-03-05 02:00:00 10.8 0 Calma 2 Sudoeste 0 -- -- 96
2020-03-05 01:00:00 11.6 0 Calma 4 Norte 0 -- -- 95
2020-03-05 00:00:00 11.8 0 Calma 5 Norte 0 -- -- 93
2020-03-04 23:00:00 12.2 0 Calma 4 Norte 0 -- -- 90
2020-03-04 22:00:00 13.4 0 Calma 14 Noroeste 0 -- -- 85
2020-03-04 21:00:00 14.8 6 Noroeste 18 Oeste 0 -- -- 79
2020-03-04 20:00:00 15.9 7 Oeste 17 Oeste 0 -- -- 76
2020-03-04 19:00:00 18 6 Noroeste 21 Oeste 0 -- -- 68
2020-03-04 18:00:00 20.8 8 Norte 21 Norte 0 -- -- 53
2020-03-04 17:00:00 21.4 8 Norte 20 Norte 0 -- -- 52
2020-03-04 16:00:00 21.2 11 Norte 26 Noroeste 0 -- -- 52
2020-03-04 15:00:00 20.6 13 Norte 26 Norte 0 -- -- 53
2020-03-04 14:00:00 20.4 8 Noroeste 24 Norte 0 -- -- 57
2020-03-04 13:00:00 19.3 10 Norte 21 Norte 0 -- -- 60
2020-03-04 12:00:00 17.4 7 Noroeste 14 Noroeste 0 -- -- 75
2020-03-04 11:00:00 14.9 4 Noroeste 8 Norte 0 -- -- 91
2020-03-04 10:00:00 12.3 3 Sudeste 5 Sudeste 0 -- -- 98
2020-03-04 09:00:00 11.9 0 Calma 3 Sudoeste 0 -- -- 98
2020-03-04 08:00:00 11.9 0 Calma 3 Oeste 0 -- -- 98
2020-03-04 07:00:00 12.3 2 Oeste 5 Sudoeste 0 -- -- 97
2020-03-04 06:00:00 12.5 0 Calma 5 Sudoeste 0 -- -- 97
2020-03-04 05:00:00 12.5 0 Calma 11 Noroeste 0 -- -- 96
2020-03-04 04:00:00 13.2 4 Oeste 8 Norte 0 -- -- 95
2020-03-04 03:00:00 14.5 0 Calma 9 Oeste 0 -- -- 94
2020-03-04 02:00:00 14.6 3 Sudoeste 11 Sudoeste 0 -- -- 92
2020-03-04 01:00:00 14.7 2 Sur 6 Sudoeste 0 -- -- 91
2020-03-04 00:00:00 14.9 2 Sudoeste 7 Sur 0 -- -- 90
2020-03-03 23:00:00 14.8 0 Calma 9 Sur 0 -- -- 88
2020-03-03 22:00:00 14.4 3 Sudoeste 6 Sur 0 -- -- 88
2020-03-03 21:00:00 14.5 2 Sur 14 Sur 0 -- -- 85
2020-03-03 20:00:00 15.3 6 Sudoeste 17 Sudoeste 0 -- -- 81
2020-03-03 19:00:00 16 9 Sudoeste 19 Sudoeste 0 -- -- 75
2020-03-03 18:00:00 17.1 10 Sur 27 Sudoeste 0 -- -- 69
2020-03-03 17:00:00 18.1 11 Sudoeste 24 Sudoeste 0 -- -- 66
2020-03-03 16:00:00 17.6 6 Sur 23 Sudoeste 0 -- -- 64
2020-03-03 15:00:00 17.4 8 Sudoeste 22 Sudoeste 0 -- -- 66
2020-03-03 14:00:00 17.7 9 Sudoeste 26 Sur 0 -- -- 63
2020-03-03 13:00:00 17.3 11 Sudoeste -- -- -- -- -- 61
2020-03-03 12:00:00 -- 4 Este 9 Noroeste 0 -- -- --
2020-03-03 11:00:00 12.5 4 Sudeste 6 Este 0 -- -- 83
2020-03-03 10:00:00 10.4 2 Sudeste 7 Este 0 -- -- 96
2020-03-03 09:00:00 8.6 3 Este 5 Este 0 -- -- 98
2020-03-03 08:00:00 8 0 Calma 4 Norte 0 -- -- 98
2020-03-03 07:00:00 7.9 0 Calma 2 Sur 0 -- -- 97
2020-03-03 06:00:00 8.5 0 Calma 3 Este 0 -- -- 97
2020-03-03 05:00:00 8.8 0 Calma 4 Norte 0 -- -- 96
2020-03-03 04:00:00 9.3 0 Calma 5 Norte 0 -- -- 95
2020-03-03 03:00:00 9.4 0 Calma 4 Norte 0 -- -- 94
2020-03-03 02:00:00 10 0 Calma 9 Oeste 0 -- -- 91
2020-03-03 01:00:00 10.7 2 Oeste 5 Norte 0 -- -- 94
2020-03-03 00:00:00 11.1 0 Calma 6 Oeste 0 -- -- 93
2020-03-02 23:00:00 12.1 2 Sudoeste 9 Sur 0 -- -- 91
2020-03-02 22:00:00 12.8 3 Sur 14 Oeste 0 -- -- 86
2020-03-02 21:00:00 12.5 0 Calma 9 Sudeste 0 -- -- 85
2020-03-02 20:00:00 14.6 0 Calma 14 Sur 0 -- -- 77
2020-03-02 19:00:00 16.5 5 Sur 16 Sur 0 -- -- 68
2020-03-02 18:00:00 18.4 7 Sudeste 18 Este 0 -- -- 57
2020-03-02 17:00:00 18.4 6 Sudeste 28 Sudoeste 0 -- -- 74
2020-03-02 16:00:00 18.4 14 Sur 30 Sur 0 -- -- 77
2020-03-02 15:00:00 18.6 15 Sur 35 Sudoeste 0 -- -- 77
2020-03-02 14:00:00 18.6 14 Sur 33 Sur 0 -- -- 79
2020-03-02 13:00:00 18.4 15 Sur 35 Sur 0 -- -- 81
2020-03-02 12:00:00 17.5 13 Sur 31 Sudoeste 0 -- -- 86
2020-03-02 11:00:00 17.1 13 Sudoeste 28 Sudoeste 0 -- -- 87
2020-03-02 10:00:00 15.8 9 Sur 21 Sur 0 -- -- 95
2020-03-02 09:00:00 15.1 5 Sur 22 Sudeste 0.4 -- -- 95
2020-03-02 08:00:00 15.2 12 Sur 20 Sur 0.4 -- -- 95
2020-03-02 07:00:00 15.4 5 Nordeste 21 Sudoeste 0.6 -- -- 93
2020-03-02 06:00:00 15.7 11 Sur 27 Sur 0 -- -- 90
2020-03-02 05:00:00 15.5 10 Sudoeste 26 Sudoeste 0 -- -- 91
2020-03-02 04:00:00 15.2 10 Sur 21 Sur 0 -- -- 92
2020-03-02 03:00:00 15 7 Sur 21 Sur 0 -- -- 93
2020-03-02 02:00:00 14.8 7 Sur 18 Sur 0 -- -- 93
2020-03-02 01:00:00 14.6 6 Sur 15 Sur 0 -- -- 92
2020-03-02 00:00:00 14.6 6 Sur 12 Sur 0 -- -- 91